Airfield :
LOGIN :

Register | Disclaimer

   EN    FR    IT 

 










Legend :    VFR   Marginal VFR   IFR   Intensive IFR   Very Intensive IFR
Visi :
Ceiling :
>= 8 km
>= 3000ft
5 to 8 km
1000 to 3000 ft
1500m to 5 km
500 to 1000 ft
800 to 1500m
200 to 500 ft
< 800m
< 200 ft
Symbols :   Thunderstorms  Fog  Heavy snow  Heavy precipitations  Wind > 20 kt
SIGMETs :     Misc.  Thunderstorms  Icing  Turbulence  Mountain Waves  Volcanic Ashes







- Airport Elevation : 100 ft


EBDT - Schaffen

CURRENT METAR :
  • 172025Z AUTO 27010KT 9999 FEW009/// SCT032/// BKN070/// 01/01 Q1013 BLU

EXPIRED METARs :
  • 172019Z AUTO 26010KT 3200 -SN FEW023/// SCT080/// 01/01 Q1013 YLO
  • 171955Z AUTO 25008KT 9999 NCD 01/00 Q1012 BLU
  • 171925Z AUTO 26008KT 9999 NCD 01/01 Q1012 BLU
  • 171855Z AUTO 29008KT 9999 FEW044/// 01/01 Q1011 BLU
  • 171825Z AUTO 28007KT 9999 FEW017/// 02/01 Q1011 BLU
  • 171813Z AUTO 28009KT 9999 FEW007/// 02/01 Q1010 BLU
  • 171755Z AUTO 29009KT 9999 FEW005/// SCT014/// BKN020/// 01/01 Q1010 GRN
  • 171746Z AUTO 28011KT 9999 FEW004/// SCT009/// BKN016/// 01/01 Q1010 GRN

TAF TAF EBDT
Valid from the 17 at 13:00 until the 17 at 22:00 UTC


171141Z 1713/1722 29010G22KT 9999 SCT020
PROB30
TEMPO 1713/1720 29015G30KT 6000 -SHRA SCT009 BKN013
PROB30
TEMPO 1717/1720 3000 SHSNRA SCT007 BKN015
No reported NOTAMs for that airfield.



MET'MAP, your aeronautical weather chart ! - Copyright ORBIFLY December 2007 - Disclaimer

ORBIFLY MET'MAP TEAM :

Programming & Development : Alexandra Zaïnal
Concept & Development : Baudouin d'Aumeries
Co-Development & Prog : Marc-Olivier Méhu
Technical & hardware support : Manuel Goepfert

Contact : metmap@orbifly.com




SOURCES & CREDITS :

   NOAA